Time;durP1;ratioP1;P1;durP2;ratioP2;P2;SDS_P1;SDS_P2;PMS_P1;PMS_P2;Temp;Humidity;BMP_temperature;BMP_pressure;BME280_temperature;BME280_humidity;BME280_pressure;Samples;Min_cycle;Max_cycle;Signal;HPM_P1;HPM_P2
2024/02/24 00:00:07;;;;;;;2.75;1.60;;;;;;;9.09;58.09;99352.81;5035020;28;110112;-83
2024/02/24 00:02:42;;;;;;;8.20;2.38;;;;;;;9.05;57.93;99359.25;5030235;28;109713;-83
2024/02/24 00:05:30;;;;;;;3.03;1.40;;;;;;;9.02;57.80;99369.97;5032635;28;123314;-83
2024/02/24 00:07:57;;;;;;;3.42;1.70;;;;;;;9.00;58.00;99358.66;5031899;28;124468;-83
2024/02/24 00:10:28;;;;;;;3.83;1.42;;;;;;;8.98;57.99;99368.47;5037046;28;110182;-83
2024/02/24 00:12:55;;;;;;;2.92;1.55;;;;;;;8.97;58.21;99361.53;5030533;28;110616;-83
2024/02/24 00:15:22;;;;;;;4.38;1.60;;;;;;;8.96;58.06;99360.66;5023083;28;124951;-83
2024/02/24 00:17:50;;;;;;;2.45;1.30;;;;;;;8.95;58.02;99358.13;5014080;28;124457;-83
2024/02/24 00:20:17;;;;;;;3.25;1.58;;;;;;;8.94;58.02;99361.69;5027062;28;109812;-83
2024/02/24 00:22:44;;;;;;;2.83;1.67;;;;;;;8.91;58.37;99356.59;5020228;28;110010;-82
2024/02/24 00:25:12;;;;;;;2.78;1.70;;;;;;;8.89;58.31;99363.78;5032216;28;124599;-82
2024/02/24 00:27:40;;;;;;;3.63;1.60;;;;;;;8.88;58.15;99364.72;5019876;28;123309;-82
2024/02/24 00:30:08;;;;;;;3.80;1.90;;;;;;;8.88;58.43;99372.66;5023987;28;108896;-81
2024/02/24 00:32:37;;;;;;;1.88;1.30;;;;;;;8.85;58.29;99367.53;5020464;28;108631;-82
2024/02/24 00:35:06;;;;;;;4.47;1.80;;;;;;;8.85;58.35;99372.81;5006158;28;121991;-82
2024/02/24 00:37:33;;;;;;;2.22;1.52;;;;;;;8.83;58.13;99370.28;5015770;28;123513;-82
2024/02/24 00:40:02;;;;;;;2.53;1.40;;;;;;;8.82;58.48;99363.31;4991774;28;108626;-81
2024/02/24 00:42:29;;;;;;;3.15;1.40;;;;;;;8.80;58.32;99367.84;5019939;28;108516;-82
2024/02/24 00:44:56;;;;;;;2.75;1.35;;;;;;;8.77;58.54;99363.59;5019673;28;123929;-82
2024/02/24 00:47:25;;;;;;;4.45;1.48;;;;;;;8.74;58.48;99365.59;5021835;28;123594;-82
2024/02/24 00:49:52;;;;;;;3.85;1.60;;;;;;;8.71;58.29;99361.31;5018871;28;109366;-82
2024/02/24 00:52:20;;;;;;;2.50;1.58;;;;;;;8.70;58.36;99364.94;5020997;28;108658;-82
2024/02/24 00:54:48;;;;;;;5.43;1.92;;;;;;;8.67;58.56;99366.91;5021558;28;122250;-82
2024/02/24 00:57:15;;;;;;;3.45;1.60;;;;;;;8.65;58.50;99372.28;5014201;28;123738;-82
2024/02/24 00:59:42;;;;;;;5.03;1.70;;;;;;;8.64;58.66;99370.56;5016708;28;108566;-82
2024/02/24 01:02:09;;;;;;;2.38;1.42;;;;;;;8.63;58.75;99368.88;5009117;28;108929;-82
2024/02/24 01:04:37;;;;;;;2.00;1.30;;;;;;;8.63;58.52;99368.88;5024694;28;124797;-82
2024/02/24 01:07:10;;;;;;;3.40;1.80;;;;;;;8.61;58.81;99370.75;5026680;28;122866;-82
2024/02/24 01:09:38;;;;;;;2.42;1.23;;;;;;;8.60;58.64;99374.31;5021201;28;109901;-82
2024/02/24 01:12:10;;;;;;;2.58;1.13;;;;;;;8.59;58.58;99375.28;5020242;28;109199;-83
2024/02/24 01:14:38;;;;;;;2.28;1.40;;;;;;;8.58;58.82;99371.78;5029003;28;123248;-82
2024/02/24 01:17:07;;;;;;;3.72;1.73;;;;;;;8.57;59.00;99374.53;5029146;28;122707;-82
2024/02/24 01:19:34;;;;;;;3.60;1.60;;;;;;;8.55;58.94;99371.13;5031822;28;109910;-82
2024/02/24 01:22:02;;;;;;;3.75;1.50;;;;;;;8.55;58.68;99376.38;5011493;28;107530;-81
2024/02/24 01:24:29;;;;;;;3.88;1.70;;;;;;;8.56;58.99;99378.09;5012933;28;124264;-82
2024/02/24 01:26:57;;;;;;;2.83;1.27;;;;;;;8.53;58.96;99373.88;5018958;28;121683;-82
2024/02/24 01:29:25;;;;;;;2.05;1.35;;;;;;;8.54;58.63;99375.56;5010949;28;109638;-81
2024/02/24 01:31:53;;;;;;;4.53;1.58;;;;;;;8.55;58.93;99376.38;5018441;28;108467;-81
2024/02/24 01:34:21;;;;;;;2.88;1.55;;;;;;;8.55;59.06;99373.75;5010212;28;123626;-81
2024/02/24 01:36:49;;;;;;;4.85;1.65;;;;;;;8.56;58.97;99372.81;5011497;28;124103;-82
2024/02/24 01:39:16;;;;;;;3.55;1.33;;;;;;;8.56;58.86;99375.47;5021934;28;110313;-82
2024/02/24 01:41:44;;;;;;;2.53;1.23;;;;;;;8.56;59.12;99373.66;5014630;28;108219;-82
2024/02/24 01:44:18;;;;;;;2.97;1.10;;;;;;;8.57;59.12;99374.53;5020657;28;123915;-82
2024/02/24 01:46:46;;;;;;;2.17;1.35;;;;;;;8.60;59.17;99373.50;5029001;28;124658;-83
2024/02/24 01:49:15;;;;;;;2.08;1.15;;;;;;;8.62;59.16;99377.72;5022450;28;108915;-82
2024/02/24 01:51:44;;;;;;;3.92;1.08;;;;;;;8.64;59.21;99375.84;5031053;28;109741;-82
2024/02/24 01:54:15;;;;;;;2.38;0.93;;;;;;;8.65;59.01;99372.28;5024746;28;122375;-82
2024/02/24 01:56:44;;;;;;;2.20;1.13;;;;;;;8.68;59.12;99377.38;5018844;28;123646;-82
2024/02/24 01:59:11;;;;;;;2.65;1.00;;;;;;;8.70;59.42;99379.91;5021777;28;110598;-82
2024/02/24 02:01:39;;;;;;;2.92;1.38;;;;;;;8.70;59.40;99375.47;5022671;28;109336;-82
2024/02/24 02:04:10;;;;;;;2.28;1.35;;;;;;;8.72;59.32;99370.97;5034166;28;126086;-82
2024/02/24 02:06:38;;;;;;;1.85;1.15;;;;;;;8.74;59.30;99363.78;5025144;28;122107;-82
2024/02/24 02:09:10;;;;;;;4.03;1.20;;;;;;;8.74;59.27;99366.44;5033182;28;109059;-82
2024/02/24 02:11:37;;;;;;;2.05;1.20;;;;;;;8.76;59.08;99369.81;5022877;28;109762;-82
2024/02/24 02:14:22;;;;;;;1.80;1.00;;;;;;;8.80;59.18;99374.91;5021329;28;124440;-82
2024/02/24 02:16:51;;;;;;;2.08;1.30;;;;;;;8.81;59.20;99368.69;5031566;28;123753;-82
2024/02/24 02:19:19;;;;;;;2.78;1.00;;;;;;;8.81;59.41;99371.31;5035915;28;109995;-82
2024/02/24 02:21:49;;;;;;;2.42;1.10;;;;;;;8.83;59.12;99380.00;5033091;28;108402;-82
2024/02/24 02:24:25;;;;;;;4.15;1.30;;;;;;;8.84;59.30;99382.56;5016744;28;123667;-82
2024/02/24 02:27:33;;;;;;;3.22;1.40;;;;;;;8.86;59.32;99379.81;5007912;28;123373;-82
2024/02/24 02:30:36;;;;;;;2.88;1.38;;;;;;;8.87;59.06;99381.50;5022991;28;108696;-82
2024/02/24 02:33:15;;;;;;;3.05;1.55;;;;;;;8.87;59.19;99382.38;5018284;28;109576;-82
2024/02/24 02:36:27;;;;;;;2.88;1.30;;;;;;;8.87;59.30;99389.41;4995444;28;124619;-82
2024/02/24 02:39:15;;;;;;;3.38;1.33;;;;;;;8.88;59.41;99397.25;5018535;28;124741;-82
2024/02/24 02:42:28;;;;;;;2.63;1.25;;;;;;;8.88;58.97;99406.97;5028445;28;111497;-82
2024/02/24 02:45:20;;;;;;;3.05;1.38;;;;;;;8.91;59.38;99409.41;5020293;28;109327;-82
2024/02/24 02:48:48;;;;;;;2.92;1.40;;;;;;;8.92;59.35;99405.84;5017794;28;123510;-82
2024/02/24 02:52:13;;;;;;;3.05;1.30;;;;;;;8.96;59.77;99409.97;4981807;28;123894;-82
2024/02/24 02:55:12;;;;;;;3.67;1.08;;;;;;;8.99;59.35;99412.44;5023309;28;111275;-82
2024/02/24 02:58:16;;;;;;;3.47;1.48;;;;;;;9.01;59.70;99410.56;4969365;28;110695;-82
2024/02/24 03:01:08;;;;;;;2.95;1.10;;;;;;;9.04;59.31;99413.03;4963183;28;124061;-82
2024/02/24 03:03:37;;;;;;;3.30;1.13;;;;;;;9.07;59.58;99415.44;4952099;28;124456;-82
2024/02/24 03:06:18;;;;;;;3.50;1.20;;;;;;;9.10;59.45;99415.28;4959555;28;109384;-81
2024/02/24 03:09:05;;;;;;;3.00;1.42;;;;;;;9.14;59.75;99406.22;4971940;28;109693;-82
2024/02/24 03:11:38;;;;;;;2.08;0.98;;;;;;;9.18;59.36;99408.66;4969361;28;124120;-82
2024/02/24 03:14:10;;;;;;;3.92;1.27;;;;;;;9.19;59.48;99402.44;4962184;28;122789;-82
2024/02/24 03:16:39;;;;;;;3.22;1.15;;;;;;;9.21;59.42;99405.81;4934918;28;110161;-82
2024/02/24 03:19:30;;;;;;;3.58;1.15;;;;;;;9.22;59.71;99400.44;4962107;28;107297;-82
2024/02/24 03:22:10;;;;;;;1.75;1.20;;;;;;;9.24;59.37;99405.63;4964150;28;123697;-81
2024/02/24 03:24:44;;;;;;;4.03;1.20;;;;;;;9.25;59.42;99407.31;4993441;28;124582;-82
2024/02/24 03:27:24;;;;;;;3.03;1.15;;;;;;;9.24;59.50;99410.91;5026240;28;108782;-82
2024/02/24 03:29:58;;;;;;;6.10;1.23;;;;;;;9.22;59.29;99403.09;5018852;28;107708;-82
2024/02/24 03:32:28;;;;;;;1.33;1.00;;;;;;;9.22;59.40;99413.66;5014705;28;124293;-82
2024/02/24 03:34:56;;;;;;;2.63;1.30;;;;;;;9.22;59.37;99412.81;5029958;28;123769;-82
2024/02/24 03:37:26;;;;;;;1.63;0.90;;;;;;;9.22;59.37;99402.25;5025413;28;108423;-82
2024/02/24 03:39:55;;;;;;;1.77;1.00;;;;;;;9.21;58.99;99405.81;5031043;28;109403;-82
2024/02/24 03:42:23;;;;;;;1.50;0.90;;;;;;;9.22;59.41;99408.38;5020466;28;122054;-82
2024/02/24 03:47:51;;;;;;;3.00;0.90;;;;;;;9.23;59.34;99414.50;5024007;28;110210;-82
2024/02/24 03:50:32;;;;;;;1.73;1.05;;;;;;;9.23;59.41;99403.94;5024130;28;111926;-82
2024/02/24 03:53:00;;;;;;;2.63;0.98;;;;;;;9.22;59.25;99412.81;5027435;28;124609;-82
2024/02/24 03:55:31;;;;;;;3.75;1.00;;;;;;;9.22;59.33;99410.16;5027243;28;123800;-82
2024/02/24 03:58:16;;;;;;;1.15;0.85;;;;;;;9.21;59.24;99411.09;5018133;28;110042;-82
2024/02/24 04:00:57;;;;;;;3.45;1.20;;;;;;;9.23;59.20;99409.22;5018664;28;108354;-82
2024/02/24 04:03:47;;;;;;;1.73;0.90;;;;;;;9.24;59.53;99410.91;5014490;28;124055;-82
2024/02/24 04:06:18;;;;;;;2.63;0.95;;;;;;;9.23;59.63;99414.50;5012099;28;122300;-81
2024/02/24 04:08:46;;;;;;;1.75;1.20;;;;;;;9.24;59.44;99410.91;5025509;28;108874;-81
2024/02/24 04:11:29;;;;;;;2.40;0.90;;;;;;;9.25;59.66;99412.59;5024510;28;108701;-82
2024/02/24 04:13:59;;;;;;;1.80;1.30;;;;;;;9.27;59.59;99416.03;5018834;28;123491;-82
2024/02/24 04:16:53;;;;;;;1.70;1.10;;;;;;;9.26;59.57;99415.16;5020149;28;123750;-82
2024/02/24 04:19:32;;;;;;;1.95;1.27;;;;;;;9.28;59.29;99412.41;5013676;28;108925;-82
2024/02/24 04:22:07;;;;;;;1.90;1.20;;;;;;;9.29;59.56;99422.06;5013165;28;109179;-82
2024/02/24 04:24:39;;;;;;;3.28;1.40;;;;;;;9.29;59.47;99416.78;5012469;28;124212;-82
2024/02/24 04:27:06;;;;;;;4.53;1.60;;;;;;;9.30;59.41;99426.38;5019212;28;121218;-81
2024/02/24 04:29:34;;;;;;;2.30;1.30;;;;;;;9.30;59.55;99421.09;4992470;28;108046;-81
2024/02/24 04:32:24;;;;;;;3.22;1.08;;;;;;;9.30;59.71;99431.66;5021967;28;109845;-82
2024/02/24 04:35:15;;;;;;;2.40;1.10;;;;;;;9.31;59.60;99430.72;5023591;28;124096;-81
2024/02/24 04:37:58;;;;;;;2.58;1.30;;;;;;;9.29;59.61;99436.09;5010300;28;124612;-81
2024/02/24 04:40:33;;;;;;;2.10;1.30;;;;;;;9.31;59.54;99438.66;5000856;28;110465;-81
2024/02/24 04:43:02;;;;;;;1.60;1.08;;;;;;;9.30;59.65;99442.22;5019182;28;109425;-81
2024/02/24 04:45:30;;;;;;;1.92;1.20;;;;;;;9.31;59.76;99449.22;5020004;28;124715;-81
2024/02/24 04:47:57;;;;;;;2.67;1.40;;;;;;;9.32;60.33;99450.91;5006677;28;123178;-81
2024/02/24 04:50:26;;;;;;;3.17;1.17;;;;;;;9.32;59.61;99461.47;5005110;28;109158;-81
2024/02/24 04:52:53;;;;;;;3.30;1.55;;;;;;;9.33;59.57;99464.03;5022651;28;109215;-81
2024/02/24 04:55:20;;;;;;;2.05;1.30;;;;;;;9.33;59.82;99468.47;5018393;28;124257;-81
2024/02/24 04:57:49;;;;;;;3.10;1.42;;;;;;;9.32;59.63;99461.47;5018019;28;124617;-81
2024/02/24 05:00:17;;;;;;;1.90;1.20;;;;;;;9.32;59.63;99467.63;5011778;28;109067;-81
2024/02/24 05:02:45;;;;;;;2.10;1.30;;;;;;;9.32;59.77;99472.03;5022461;28;109095;-81
2024/02/24 05:05:13;;;;;;;2.50;1.52;;;;;;;9.33;59.55;99463.19;5025047;28;124704;-81
2024/02/24 05:07:40;;;;;;;4.50;1.40;;;;;;;9.33;59.72;99468.47;5024410;28;124369;-81
2024/02/24 05:10:08;;;;;;;3.05;1.42;;;;;;;9.33;59.77;99463.19;5024176;28;108604;-81
2024/02/24 05:12:37;;;;;;;4.47;1.40;;;;;;;9.32;59.62;99461.47;5011138;28;108914;-81
2024/02/24 05:15:05;;;;;;;3.15;1.33;;;;;;;9.33;59.76;99463.19;5012013;28;123567;-81
2024/02/24 05:17:34;;;;;;;1.80;1.13;;;;;;;9.31;59.63;99471.19;5011750;28;123869;-81
2024/02/24 05:20:03;;;;;;;2.60;1.27;;;;;;;9.31;59.71;99467.72;5023246;28;109676;-82
2024/02/24 05:22:30;;;;;;;3.03;1.83;;;;;;;9.31;59.68;99475.66;5028187;28;108741;-82
2024/02/24 05:24:59;;;;;;;2.35;1.40;;;;;;;9.30;59.55;99471.28;5028805;28;124125;-82
2024/02/24 05:27:26;;;;;;;2.08;1.10;;;;;;;9.30;59.38;99473.94;5030094;28;122969;-82
2024/02/24 05:29:54;;;;;;;2.42;1.60;;;;;;;9.29;59.93;99485.47;5039399;28;109635;-82
2024/02/24 05:32:21;;;;;;;2.00;1.38;;;;;;;9.29;59.53;99482.81;5033707;28;109706;-81
2024/02/24 05:34:48;;;;;;;2.30;1.40;;;;;;;9.28;59.57;99478.47;5015439;28;123604;-81
2024/02/24 05:37:16;;;;;;;3.08;1.17;;;;;;;9.29;59.70;99477.53;5032630;28;126173;-82
2024/02/24 05:39:47;;;;;;;2.30;1.50;;;;;;;9.30;59.54;99484.50;5039466;28;108774;-82
2024/02/24 05:42:18;;;;;;;3.50;1.27;;;;;;;9.30;59.67;99479.22;5025652;28;109104;-82
2024/02/24 05:44:52;;;;;;;2.83;1.80;;;;;;;9.30;59.49;99489.78;5032968;28;123609;-82
2024/02/24 05:47:19;;;;;;;2.63;1.48;;;;;;;9.29;59.49;99488.09;5023007;28;123267;-82
2024/02/24 05:49:54;;;;;;;3.80;1.40;;;;;;;9.28;59.51;99496.97;5023004;28;109699;-82
2024/02/24 05:52:22;;;;;;;4.10;1.67;;;;;;;9.28;59.50;99496.97;5031853;28;108884;-81
2024/02/24 05:54:50;;;;;;;2.53;1.40;;;;;;;9.30;59.57;99500.34;5014658;28;122581;-82
2024/02/24 05:57:17;;;;;;;3.13;1.70;;;;;;;9.30;59.39;99505.63;5018997;28;124252;-81
2024/02/24 05:59:46;;;;;;;2.90;1.45;;;;;;;9.29;59.69;99503.97;5011758;28;109624;-81
2024/02/24 06:02:14;;;;;;;4.03;1.70;;;;;;;9.27;59.60;99503.22;5025661;28;108513;-81
2024/02/24 06:04:41;;;;;;;2.72;1.80;;;;;;;9.26;59.66;99509.41;5014483;28;124155;-82
2024/02/24 06:07:08;;;;;;;2.97;2.05;;;;;;;9.24;59.51;99512.16;5027825;28;123930;-82
2024/02/24 06:09:35;;;;;;;2.63;1.92;;;;;;;9.24;59.44;99516.59;5032814;28;109755;-82
2024/02/24 06:12:04;;;;;;;2.30;1.88;;;;;;;9.23;59.64;99520.16;5029222;28;109280;-82
2024/02/24 06:14:38;;;;;;;2.20;1.55;;;;;;;9.24;59.70;99527.16;5037964;28;123696;-82
2024/02/24 06:17:05;;;;;;;3.40;1.90;;;;;;;9.24;59.70;99529.78;5029460;28;121837;-82
2024/02/24 06:19:33;;;;;;;4.38;1.75;;;;;;;9.24;59.39;99532.44;5032648;28;109867;-82
2024/02/24 06:22:00;;;;;;;3.28;2.00;;;;;;;9.25;59.39;99542.03;5023629;28;109843;-82
2024/02/24 06:24:27;;;;;;;2.95;1.77;;;;;;;9.25;59.68;99540.28;5029382;28;122639;-83
2024/02/24 06:26:56;;;;;;;6.72;2.00;;;;;;;9.26;59.63;99535.84;5025296;28;124580;-83
2024/02/24 06:29:23;;;;;;;4.55;2.05;;;;;;;9.26;59.63;99536.69;5028313;28;110327;-82
2024/02/24 06:31:50;;;;;;;3.63;1.80;;;;;;;9.28;59.51;99540.06;5038740;28;109817;-84
2024/02/24 07:02:10;;;;;;;5.88;3.22;;;;;;;9.21;59.31;99565.19;6083079;22;99469;31
2024/02/24 07:04:40;;;;;;;3.08;1.90;;;;;;;9.20;59.32;99562.63;4969264;28;108886;-82
2024/02/24 07:07:09;;;;;;;2.75;1.40;;;;;;;9.22;59.47;99571.31;4949485;28;107219;-81
2024/02/24 07:09:36;;;;;;;3.83;1.65;;;;;;;9.23;59.29;99573.00;4945807;28;123986;-81
2024/02/24 07:12:09;;;;;;;4.03;1.65;;;;;;;9.21;59.45;99575.75;4943668;28;123610;-81
2024/02/24 07:14:37;;;;;;;3.40;1.90;;;;;;;9.20;59.48;99583.75;4939921;28;109500;-81
2024/02/24 07:17:07;;;;;;;5.90;2.00;;;;;;;9.21;59.29;99590.72;4943183;28;109798;-82
2024/02/24 07:19:34;;;;;;;4.85;2.03;;;;;;;9.21;59.76;99590.72;4962148;28;124744;-82
2024/02/24 07:22:01;;;;;;;3.38;1.83;;;;;;;9.20;59.26;99589.88;4949654;28;123071;-82
2024/02/24 07:24:29;;;;;;;2.70;1.80;;;;;;;9.22;59.28;99603.00;4970390;28;109944;-81
2024/02/24 07:26:58;;;;;;;3.35;1.60;;;;;;;9.21;59.34;99596.88;4944446;28;109437;-81
2024/02/24 07:29:26;;;;;;;3.65;1.42;;;;;;;9.23;59.61;99608.22;4946933;28;123301;-81
2024/02/24 07:31:55;;;;;;;3.28;1.65;;;;;;;9.25;59.59;99602.81;4942466;28;124690;-81
2024/02/24 07:34:23;;;;;;;5.05;1.83;;;;;;;9.27;59.39;99616.81;4942440;28;107722;-81
2024/02/24 07:36:50;;;;;;;5.55;2.10;;;;;;;9.29;59.60;99614.91;4940696;28;107070;-81
2024/02/24 07:39:18;;;;;;;2.88;1.70;;;;;;;9.29;59.55;99609.63;4940613;28;124184;-81
2024/02/24 07:41:46;;;;;;;3.88;1.98;;;;;;;9.31;59.29;99619.16;4935961;28;123730;-81
2024/02/24 07:44:13;;;;;;;4.28;3.03;;;;;;;9.33;59.45;99622.56;4956905;28;109692;-81
2024/02/24 07:46:44;;;;;;;8.15;4.63;;;;;;;9.36;59.56;99613.59;4940235;28;108354;-81
2024/02/24 07:49:11;;;;;;;6.20;3.83;;;;;;;9.38;59.62;99613.50;4933833;28;123780;-81
2024/02/24 07:51:39;;;;;;;4.45;1.90;;;;;;;9.40;59.61;99623.06;4939783;28;123128;-81
2024/02/24 07:54:06;;;;;;;3.05;1.77;;;;;;;9.41;59.53;99619.47;4925447;28;108313;-81
2024/02/24 07:56:34;;;;;;;2.83;1.65;;;;;;;9.43;59.40;99622.84;4944209;28;107986;-81
2024/02/24 07:59:02;;;;;;;5.57;1.52;;;;;;;9.45;59.69;99620.97;4939449;28;124174;-79
2024/02/24 08:01:37;;;;;;;3.70;1.95;;;;;;;9.49;59.57;99633.09;4932920;28;123141;-79
2024/02/24 08:04:04;;;;;;;4.93;1.60;;;;;;;9.53;59.55;99634.59;4949170;28;109864;-79
2024/02/24 08:06:31;;;;;;;3.03;1.50;;;;;;;9.57;59.70;99637.03;4932077;28;109961;-79
2024/02/24 08:09:00;;;;;;;4.07;1.65;;;;;;;9.60;59.66;99634.22;4929430;28;122989;-78
2024/02/24 08:11:29;;;;;;;2.85;1.50;;;;;;;9.64;59.72;99635.72;4953367;28;123442;-81
2024/02/24 08:14:10;;;;;;;3.70;1.50;;;;;;;9.68;59.58;99639.88;4950338;28;110205;-81
2024/02/24 08:16:38;;;;;;;2.95;1.17;;;;;;;9.71;59.73;99637.06;4941384;28;108602;-80
2024/02/24 08:19:07;;;;;;;2.95;1.40;;;;;;;9.77;59.72;99641.97;4941607;28;123181;-80
2024/02/24 08:21:36;;;;;;;2.83;1.33;;;;;;;9.82;59.43;99653.13;4940572;28;124494;-80
2024/02/24 08:24:07;;;;;;;2.40;1.20;;;;;;;9.88;59.63;99659.81;4945723;28;109914;-81
2024/02/24 08:26:39;;;;;;;2.72;1.23;;;;;;;9.94;59.51;99649.72;4931790;28;108629;-81
2024/02/24 08:29:11;;;;;;;2.42;1.10;;;;;;;10.02;59.96;99656.31;4939014;28;123992;-81
2024/02/24 08:31:39;;;;;;;1.58;0.90;;;;;;;10.07;59.68;99659.53;4929124;28;123966;-80
2024/02/24 08:34:06;;;;;;;2.67;1.10;;;;;;;10.10;59.51;99662.00;4933563;28;109387;-80
2024/02/24 08:36:47;;;;;;;2.17;1.20;;;;;;;10.11;59.51;99666.34;4940170;28;96981;-80
2024/02/24 08:39:15;;;;;;;2.03;0.98;;;;;;;10.13;59.26;99669.72;4935752;28;124729;-80
2024/02/24 08:41:42;;;;;;;1.63;1.08;;;;;;;10.13;59.37;99669.72;4935629;28;123658;-80
2024/02/24 08:44:09;;;;;;;4.57;1.38;;;;;;;10.14;59.33;99671.44;4941713;28;109406;-81
2024/02/24 08:46:37;;;;;;;2.17;1.20;;;;;;;10.15;59.11;99683.72;4937880;28;109691;-81
2024/02/24 08:49:04;;;;;;;2.20;1.20;;;;;;;10.14;59.23;99682.03;4937498;28;123391;-81
2024/02/24 08:51:40;;;;;;;1.70;1.15;;;;;;;10.14;58.94;99687.31;4935412;28;123721;-81
2024/02/24 08:54:07;;;;;;;2.00;1.10;;;;;;;10.13;58.91;99693.53;4941379;28;110341;-82
2024/02/24 08:56:39;;;;;;;2.70;1.10;;;;;;;10.10;59.07;99691.94;4938208;28;110309;-81
2024/02/24 08:59:06;;;;;;;3.10;0.93;;;;;;;10.10;58.98;99691.09;4936896;28;123172;-81
2024/02/24 09:01:35;;;;;;;2.72;0.70;;;;;;;10.08;58.82;99711.50;4922009;28;123263;-81
2024/02/24 09:04:03;;;;;;;1.25;0.80;;;;;;;10.03;58.67;99718.88;4941670;28;107930;-82
2024/02/24 09:06:37;;;;;;;0.80;0.50;;;;;;;9.94;58.67;99729.06;4947847;28;110236;-81
2024/02/24 09:09:05;;;;;;;2.33;1.03;;;;;;;9.87;58.46;99727.75;4935995;28;124177;-81
2024/02/24 09:11:33;;;;;;;2.17;1.23;;;;;;;9.81;58.48;99728.09;4941405;28;121907;-81
2024/02/24 09:14:00;;;;;;;2.60;1.20;;;;;;;9.73;58.69;99738.28;4943441;28;107905;-81
2024/02/24 09:16:30;;;;;;;3.13;1.52;;;;;;;9.68;58.61;99742.97;4942824;28;108448;-81
2024/02/24 09:18:57;;;;;;;2.00;1.38;;;;;;;9.66;58.81;99740.47;4934140;28;124091;-81
2024/02/24 09:21:29;;;;;;;2.42;1.50;;;;;;;9.65;58.80;99751.13;4942303;28;121782;-81
2024/02/24 09:23:56;;;;;;;2.20;1.52;;;;;;;9.64;58.73;99752.03;4938293;28;108956;-81
2024/02/24 09:26:24;;;;;;;3.15;1.60;;;;;;;9.61;58.95;99765.47;4941263;28;108369;-81
2024/02/24 09:28:51;;;;;;;3.63;1.70;;;;;;;9.55;58.95;99775.44;4940767;28;123307;-81
2024/02/24 09:31:18;;;;;;;3.08;2.13;;;;;;;9.49;58.31;99761.72;4941156;28;122137;-80
2024/02/24 09:33:50;;;;;;;3.13;1.80;;;;;;;9.41;58.72;99767.44;4939043;28;109560;-80
2024/02/24 09:36:17;;;;;;;2.42;1.73;;;;;;;9.35;59.22;99773.09;4936299;28;108168;-79
2024/02/24 09:38:46;;;;;;;3.10;1.60;;;;;;;9.31;59.11;99772.41;4937814;28;123422;-80
2024/02/24 09:41:16;;;;;;;3.15;2.20;;;;;;;9.28;59.26;99777.00;4937593;28;124385;-80
2024/02/24 09:43:44;;;;;;;2.58;1.48;;;;;;;9.26;58.92;99773.63;4933231;28;110449;-80
2024/02/24 09:46:11;;;;;;;5.85;2.22;;;;;;;9.23;59.13;99781.69;4938602;28;110166;-80
2024/02/24 09:48:41;;;;;;;3.20;1.85;;;;;;;9.22;59.25;99777.38;4937613;28;124240;-80
2024/02/24 09:51:09;;;;;;;4.30;2.65;;;;;;;9.23;59.48;99789.63;4938463;28;123210;-80
2024/02/24 09:53:39;;;;;;;4.38;2.30;;;;;;;9.25;59.58;99782.47;4939582;28;108946;-80
2024/02/24 09:56:06;;;;;;;4.85;2.13;;;;;;;9.27;59.73;99791.19;4954014;28;108120;-80
2024/02/24 09:58:37;;;;;;;4.85;2.30;;;;;;;9.33;59.66;99796.13;4928582;28;126281;-81
2024/02/24 10:01:04;;;;;;;4.72;2.97;;;;;;;9.39;59.68;99790.47;4935924;28;124318;-80
2024/02/24 10:03:32;;;;;;;5.68;2.17;;;;;;;9.48;60.07;99795.22;4930968;28;109441;-80
2024/02/24 10:06:00;;;;;;;4.38;2.70;;;;;;;9.54;59.79;99794.88;4937567;28;108055;-81
2024/02/24 10:08:28;;;;;;;4.88;2.35;;;;;;;9.60;59.58;99803.41;4936991;28;122838;-80
2024/02/24 10:11:00;;;;;;;5.75;2.65;;;;;;;9.64;59.85;99799.63;4937674;28;123110;-80
2024/02/24 10:13:30;;;;;;;4.15;2.45;;;;;;;9.69;60.03;99805.50;4944824;28;108250;-80
2024/02/24 10:16:05;;;;;;;5.30;2.58;;;;;;;9.71;59.71;99806.25;4930988;28;108604;-80
2024/02/24 10:18:32;;;;;;;5.45;2.30;;;;;;;9.75;59.96;99818.38;4934272;28;123265;-80
2024/02/24 10:21:00;;;;;;;3.65;2.15;;;;;;;9.77;59.59;99816.47;4945954;28;125063;-80
2024/02/24 10:23:28;;;;;;;4.38;2.35;;;;;;;9.78;59.62;99812.91;4940212;28;108409;-80
2024/02/24 10:25:58;;;;;;;4.03;2.20;;;;;;;9.83;59.83;99821.44;4937255;28;109286;-80
2024/02/24 10:28:26;;;;;;;3.78;2.58;;;;;;;9.91;59.84;99819.19;4939023;28;124124;-80
2024/02/24 10:30:54;;;;;;;2.90;1.88;;;;;;;10.06;60.10;99821.88;4926432;28;125133;-80
2024/02/24 10:33:22;;;;;;;3.72;2.08;;;;;;;10.18;60.09;99831.72;4936252;28;110228;-80
2024/02/24 10:35:54;;;;;;;4.10;2.42;;;;;;;10.31;60.38;99822.13;4947697;28;109105;-80
2024/02/24 10:38:22;;;;;;;2.90;2.03;;;;;;;10.48;60.52;99818.44;4936935;28;124175;-80
2024/02/24 10:41:03;;;;;;;3.78;2.13;;;;;;;10.65;60.12;99825.34;4938440;28;123708;-81
2024/02/24 10:43:32;;;;;;;5.35;2.05;;;;;;;10.78;60.13;99829.91;4939686;28;110342;-81
2024/02/24 10:46:00;;;;;;;4.20;1.90;;;;;;;10.89;59.89;99824.78;4937721;28;108933;-80
2024/02/24 10:48:29;;;;;;;3.25;1.75;;;;;;;10.96;59.79;99823.44;4938318;28;123996;-81
2024/02/24 10:50:57;;;;;;;4.57;1.65;;;;;;;11.03;59.63;99819.44;4936880;28;124289;-81
2024/02/24 10:53:33;;;;;;;4.65;1.73;;;;;;;11.10;59.52;99820.75;4940379;28;107583;-80
2024/02/24 10:56:02;;;;;;;4.00;1.60;;;;;;;11.18;59.47;99822.06;4944534;28;109478;-81
2024/02/24 10:58:29;;;;;;;4.75;1.70;;;;;;;11.20;59.00;99820.19;4938165;28;123877;-81
2024/02/24 11:00:56;;;;;;;2.55;1.35;;;;;;;11.21;59.12;99827.19;4941148;28;124695;-81
2024/02/24 11:03:25;;;;;;;2.53;1.20;;;;;;;11.20;58.70;99822.81;4941750;28;109461;-81
2024/02/24 11:05:57;;;;;;;2.42;1.45;;;;;;;11.18;58.52;99830.03;4959100;28;107281;-81
2024/02/24 11:08:35;;;;;;;2.97;1.50;;;;;;;11.15;58.45;99833.75;4943197;28;124472;-81
2024/02/24 11:11:05;;;;;;;2.47;1.40;;;;;;;11.14;58.19;99847.91;4931741;28;123357;-81
2024/02/24 11:13:33;;;;;;;2.78;1.27;;;;;;;11.10;58.10;99847.25;4936404;28;108573;-81
2024/02/24 11:16:05;;;;;;;2.80;1.80;;;;;;;11.10;58.14;99841.13;4958231;28;109682;-81
2024/02/24 11:18:47;;;;;;;4.70;1.52;;;;;;;11.09;58.25;99848.22;4929582;28;124722;-81
2024/02/24 11:21:19;;;;;;;3.47;1.35;;;;;;;11.06;57.98;99851.06;4941789;28;123943;-81
2024/02/24 11:23:47;;;;;;;3.45;1.70;;;;;;;11.06;57.95;99847.56;4940640;28;109429;-81
2024/02/24 11:26:16;;;;;;;5.53;1.58;;;;;;;11.10;58.15;99852.56;4941773;28;109533;-81
2024/02/24 11:28:45;;;;;;;2.88;1.50;;;;;;;11.17;58.13;99852.16;4942620;28;123178;-81
2024/02/24 11:31:17;;;;;;;3.15;1.50;;;;;;;11.20;58.06;99849.34;4937215;28;124263;-81
2024/02/24 11:33:44;;;;;;;4.72;1.67;;;;;;;11.28;58.31;99854.97;4944845;28;109630;-82
2024/02/24 11:36:13;;;;;;;3.55;1.60;;;;;;;11.34;57.94;99853.75;4949271;28;106961;-81
2024/02/24 11:38:45;;;;;;;2.42;1.55;;;;;;;11.37;57.92;99865.00;4946827;28;123655;-82
2024/02/24 11:41:12;;;;;;;2.72;1.73;;;;;;;11.39;57.59;99857.78;4945028;28;123510;-82
2024/02/24 11:43:42;;;;;;;3.30;1.58;;;;;;;11.39;57.23;99863.09;4937701;28;107563;-82
2024/02/24 11:46:11;;;;;;;3.78;1.50;;;;;;;11.39;57.61;99867.56;4933957;28;108698;-82
2024/02/24 11:48:38;;;;;;;2.13;1.00;;;;;;;11.36;57.27;99863.31;4929737;28;124399;-82
2024/02/24 11:51:08;;;;;;;4.63;1.40;;;;;;;11.32;57.32;99860.94;4942715;28;122031;-81
2024/02/24 11:53:35;;;;;;;2.25;1.27;;;;;;;11.30;57.09;99858.38;4934062;28;109353;-81
2024/02/24 11:56:05;;;;;;;3.88;1.20;;;;;;;11.29;56.93;99856.69;4944005;28;108075;-82
2024/02/24 11:58:33;;;;;;;2.25;1.00;;;;;;;11.28;57.05;99865.59;4951275;28;124032;-81
2024/02/24 12:01:04;;;;;;;4.15;1.30;;;;;;;11.28;56.98;99865.59;4938510;28;123414;-82
2024/02/24 12:03:31;;;;;;;3.42;1.13;;;;;;;11.27;56.98;99874.50;4941319;28;108525;-82
2024/02/24 12:06:03;;;;;;;2.30;1.10;;;;;;;11.27;56.54;99869.19;4947003;28;107975;-81
2024/02/24 12:08:35;;;;;;;3.08;1.20;;;;;;;11.25;56.49;99876.41;4943405;28;124539;-82
2024/02/24 12:11:02;;;;;;;2.40;1.20;;;;;;;11.24;56.61;99874.69;4939497;28;123599;-81
2024/02/24 12:13:40;;;;;;;2.33;1.13;;;;;;;11.22;56.46;99872.13;4932112;28;108378;-80
2024/02/24 12:16:07;;;;;;;3.10;1.10;;;;;;;11.25;56.23;99889.66;4932632;28;109752;-82
2024/02/24 12:18:43;;;;;;;2.88;1.00;;;;;;;11.23;56.18;99884.44;4944474;28;123612;-82
2024/02/24 12:21:11;;;;;;;3.78;1.20;;;;;;;11.23;56.38;99880.97;4932441;28;124337;-81